Time;durP1;ratioP1;P1;durP2;ratioP2;P2;SDS_P1;SDS_P2;PMS_P1;PMS_P2;Temp;Humidity;BMP_temperature;BMP_pressure;BME280_temperature;BME280_humidity;BME280_pressure;Samples;Min_cycle;Max_cycle;Signal;HPM_P1;HPM_P2
2021/12/25 00:01:19;;;;;;;25.33;19.92;;;8.00;99.90;;;;;;4978617;28;20250;-69
2021/12/25 00:03:50;;;;;;;20.77;16.50;;;8.00;99.90;;;;;;4978846;28;20345;-70
2021/12/25 00:06:17;;;;;;;24.15;18.02;;;8.00;99.90;;;;;;4978215;28;20644;-70
2021/12/25 00:08:43;;;;;;;24.80;17.95;;;8.00;99.90;;;;;;4977815;28;20195;-70
2021/12/25 00:11:11;;;;;;;22.20;16.00;;;8.00;99.90;;;;;;4978952;28;20203;-70
2021/12/25 00:13:38;;;;;;;21.92;17.80;;;8.00;99.90;;;;;;4979022;28;20210;-68
2021/12/25 00:16:05;;;;;;;18.50;15.23;;;8.10;99.90;;;;;;4979120;28;20222;-69
2021/12/25 00:18:33;;;;;;;21.23;15.50;;;8.10;99.90;;;;;;4978777;28;20246;-69
2021/12/25 00:20:59;;;;;;;17.52;15.10;;;8.00;99.90;;;;;;4990452;28;20234;-69
2021/12/25 00:23:26;;;;;;;19.27;15.13;;;8.00;99.90;;;;;;4996978;28;20533;-70
2021/12/25 00:25:59;;;;;;;24.92;14.50;;;8.00;99.90;;;;;;4997309;28;20203;-69
2021/12/25 00:36:03;;;;;;;15.88;13.90;;;7.90;99.90;;;;;;4997971;28;20211;-69
2021/12/25 00:38:31;;;;;;;16.23;14.52;;;8.00;99.90;;;;;;4980254;28;20207;-68
2021/12/25 00:40:59;;;;;;;31.20;16.45;;;8.00;99.90;;;;;;4996946;28;20313;-68
2021/12/25 00:43:25;;;;;;;37.20;17.48;;;8.00;99.90;;;;;;4997437;28;20199;-70
2021/12/25 00:45:52;;;;;;;22.48;16.25;;;8.00;99.90;;;;;;4999118;28;20340;-69
2021/12/25 00:48:19;;;;;;;20.10;14.55;;;8.00;99.90;;;;;;4998247;28;20199;-69
2021/12/25 00:50:45;;;;;;;16.85;12.90;;;8.00;99.90;;;;;;4997834;28;20574;-69
2021/12/25 00:53:11;;;;;;;16.67;13.52;;;8.00;99.90;;;;;;4997799;28;20207;-69
2021/12/25 00:55:38;;;;;;;18.80;13.60;;;8.00;99.90;;;;;;4998193;28;20206;-69
2021/12/25 00:58:04;;;;;;;30.42;20.20;;;8.10;99.90;;;;;;4997633;28;20289;-69
2021/12/25 01:00:31;;;;;;;13.68;12.25;;;8.10;99.90;;;;;;4998026;28;20577;-70
2021/12/25 01:02:57;;;;;;;17.08;12.85;;;8.10;99.90;;;;;;4997837;28;20290;-70
2021/12/25 01:05:24;;;;;;;17.65;12.93;;;8.10;99.90;;;;;;4997699;28;20202;-69
2021/12/25 01:07:50;;;;;;;19.75;12.55;;;8.10;99.90;;;;;;4996501;28;20223;-69
2021/12/25 01:10:19;;;;;;;19.23;11.98;;;8.10;99.90;;;;;;4996518;28;20202;-69
2021/12/25 01:13:08;;;;;;;16.08;13.63;;;8.10;99.90;;;;;;4995666;28;20198;-69
2021/12/25 01:15:54;;;;;;;14.27;12.63;;;8.10;99.90;;;;;;4996662;28;20203;-69
2021/12/25 01:29:51;;;;;;;19.17;14.38;;;8.20;99.90;;;;;;4996789;28;20631;-69
2021/12/25 01:37:03;;;;;;;20.63;15.38;;;8.20;99.90;;;;;;4996571;28;20202;-69
2021/12/25 01:50:05;;;;;;;17.33;15.20;;;8.10;99.90;;;;;;4997622;28;20650;-69
2021/12/25 01:52:32;;;;;;;18.45;14.80;;;8.10;99.90;;;;;;4997258;28;20213;-69
2021/12/25 01:55:05;;;;;;;20.90;16.55;;;8.10;99.90;;;;;;4996935;28;20794;-69
2021/12/25 01:57:31;;;;;;;20.25;15.60;;;8.10;99.90;;;;;;4996225;28;20197;-69
2021/12/25 01:59:59;;;;;;;21.70;17.33;;;8.10;99.90;;;;;;4996487;28;20233;-69
2021/12/25 02:02:26;;;;;;;22.55;16.75;;;8.10;99.90;;;;;;4997594;28;20733;-69
2021/12/25 02:04:53;;;;;;;21.73;18.48;;;8.10;99.90;;;;;;4996446;28;20202;-69
2021/12/25 02:07:20;;;;;;;29.23;18.10;;;8.00;99.90;;;;;;4996440;28;20227;-69
2021/12/25 02:09:48;;;;;;;26.17;18.60;;;8.10;99.90;;;;;;4997767;28;20206;-69
2021/12/25 02:12:15;;;;;;;26.50;19.65;;;8.00;99.90;;;;;;4999662;28;20206;-69
2021/12/25 02:14:45;;;;;;;24.95;19.35;;;8.00;99.90;;;;;;4999812;28;20214;-69
2021/12/25 02:17:21;;;;;;;23.58;19.52;;;8.00;99.90;;;;;;5000730;28;20211;-69
2021/12/25 02:19:54;;;;;;;25.10;19.25;;;8.00;99.90;;;;;;5000135;28;20237;-69
2021/12/25 02:22:25;;;;;;;26.15;19.10;;;8.00;99.90;;;;;;5000230;28;20214;-69
2021/12/25 02:24:51;;;;;;;24.90;18.60;;;8.00;99.90;;;;;;5000329;28;20202;-69
2021/12/25 02:27:18;;;;;;;26.42;20.27;;;8.00;99.90;;;;;;5000856;28;20631;-69
2021/12/25 02:29:44;;;;;;;26.10;19.90;;;8.00;99.90;;;;;;5000620;28;20206;-69
2021/12/25 02:32:11;;;;;;;27.38;20.48;;;7.90;99.90;;;;;;5000121;28;20290;-69
2021/12/25 02:34:37;;;;;;;25.75;19.38;;;7.90;99.90;;;;;;5000490;28;20603;-69
2021/12/25 02:37:04;;;;;;;33.78;22.25;;;7.90;99.90;;;;;;4999503;28;20218;-70
2021/12/25 02:39:30;;;;;;;28.17;21.45;;;7.90;99.90;;;;;;4999553;28;20241;-69
2021/12/25 02:41:57;;;;;;;28.00;21.33;;;7.90;99.90;;;;;;4999637;28;20269;-69
2021/12/25 02:44:23;;;;;;;28.67;21.50;;;7.90;99.90;;;;;;4981285;28;20665;-69
2021/12/25 02:46:54;;;;;;;28.73;21.20;;;7.80;99.90;;;;;;4998965;28;20352;-69
2021/12/25 02:49:20;;;;;;;28.95;22.27;;;7.80;99.90;;;;;;4999851;28;20203;-69
2021/12/25 02:51:48;;;;;;;29.95;22.30;;;7.80;99.90;;;;;;4999580;28;20202;-69
2021/12/25 02:54:14;;;;;;;34.47;23.27;;;7.80;99.90;;;;;;4998907;28;20206;-69
2021/12/25 02:56:41;;;;;;;36.08;26.20;;;7.80;99.90;;;;;;4999566;28;20207;-69
2021/12/25 02:59:12;;;;;;;39.72;25.90;;;7.80;99.90;;;;;;4998601;28;20576;-69
2021/12/25 03:01:38;;;;;;;33.83;24.88;;;7.80;99.90;;;;;;4998330;28;20237;-69
2021/12/25 03:04:05;;;;;;;41.83;27.80;;;7.80;99.90;;;;;;4999133;28;20297;-69
2021/12/25 03:06:37;;;;;;;38.35;26.15;;;7.80;99.90;;;;;;4999838;28;20226;-69
2021/12/25 03:09:05;;;;;;;38.55;27.10;;;7.80;99.90;;;;;;4999481;28;20273;-69
2021/12/25 03:11:33;;;;;;;42.42;28.42;;;7.80;99.90;;;;;;4999739;28;20349;-69
2021/12/25 03:14:12;;;;;;;38.78;27.30;;;7.80;99.90;;;;;;4999359;28;20750;-70
2021/12/25 03:16:40;;;;;;;41.45;27.45;;;7.80;99.90;;;;;;4998873;28;20551;-70
2021/12/25 03:19:13;;;;;;;46.33;31.02;;;7.80;99.90;;;;;;4999288;28;20203;-70
2021/12/25 03:21:40;;;;;;;43.28;30.40;;;7.80;99.90;;;;;;4997749;28;20246;-70
2021/12/25 03:24:06;;;;;;;45.85;29.80;;;7.80;99.90;;;;;;4999064;28;20263;-70
2021/12/25 03:26:33;;;;;;;48.17;29.88;;;7.80;99.90;;;;;;4999129;28;20215;-70
2021/12/25 03:29:03;;;;;;;49.55;32.05;;;7.80;99.90;;;;;;4998952;28;20269;-70
2021/12/25 03:31:31;;;;;;;49.08;32.15;;;7.80;99.90;;;;;;4998183;28;20623;-69
2021/12/25 03:33:57;;;;;;;50.72;30.00;;;7.80;99.90;;;;;;4997684;28;20215;-70
2021/12/25 03:36:24;;;;;;;49.35;31.50;;;7.80;99.90;;;;;;4999210;28;20213;-70
2021/12/25 03:38:51;;;;;;;42.70;30.40;;;7.90;99.90;;;;;;4999104;28;20568;-70
2021/12/25 03:41:18;;;;;;;44.90;28.42;;;7.90;99.90;;;;;;4998902;28;20222;-70
2021/12/25 03:43:45;;;;;;;42.90;29.85;;;7.90;99.90;;;;;;4999790;28;20199;-70
2021/12/25 03:46:13;;;;;;;47.38;29.63;;;7.90;99.90;;;;;;4998733;28;20609;-67
2021/12/25 03:59:11;;;;;;;45.20;29.45;;;7.90;99.90;;;;;;4978747;28;20447;-68
2021/12/25 04:04:44;;;;;;;43.47;28.63;;;7.90;99.90;;;;;;4978797;28;20286;-68
2021/12/25 04:07:04;;;;;;;44.03;28.17;;;7.90;99.90;;;;;;4976234;28;20223;-68
2021/12/25 04:09:33;;;;;;;45.15;29.25;;;7.90;99.90;;;;;;4978119;28;20203;-68
2021/12/25 04:12:05;;;;;;;41.28;27.38;;;7.90;99.90;;;;;;4977730;28;20207;-68
2021/12/25 04:14:32;;;;;;;46.63;28.90;;;7.90;99.90;;;;;;4978952;28;20207;-68
2021/12/25 04:16:59;;;;;;;43.92;28.13;;;7.90;99.90;;;;;;4978291;28;20214;-68
2021/12/25 04:19:25;;;;;;;48.33;28.63;;;8.00;99.90;;;;;;4978636;28;20254;-68
2021/12/25 04:22:18;;;;;;;45.55;27.70;;;7.90;99.90;;;;;;4978095;28;20238;-69
2021/12/25 04:24:44;;;;;;;43.08;26.73;;;7.90;99.90;;;;;;4978398;28;20703;-68
2021/12/25 04:27:14;;;;;;;50.83;29.95;;;7.90;99.90;;;;;;4978472;28;20206;-68
2021/12/25 04:29:48;;;;;;;54.75;30.75;;;7.90;99.90;;;;;;4979223;28;20199;-69
2021/12/25 05:04:42;;;;;;;53.47;28.65;;;7.90;99.90;;;;;;4977803;28;20199;-69
2021/12/25 05:07:10;;;;;;;53.95;28.65;;;7.90;99.90;;;;;;4977515;28;20219;-69
2021/12/25 05:09:37;;;;;;;54.40;27.98;;;7.90;99.90;;;;;;4978011;28;20543;-69
2021/12/25 05:12:03;;;;;;;53.47;28.65;;;7.90;99.90;;;;;;4976772;28;20270;-68
2021/12/25 05:14:30;;;;;;;52.25;27.75;;;7.90;99.90;;;;;;4976942;28;20334;-69
2021/12/25 05:16:57;;;;;;;53.67;28.95;;;7.90;99.90;;;;;;4977934;28;20203;-69
2021/12/25 05:19:25;;;;;;;51.67;29.75;;;7.90;99.90;;;;;;4978171;28;20297;-69
2021/12/25 05:21:52;;;;;;;52.60;28.60;;;7.90;99.90;;;;;;4976947;28;20301;-69
2021/12/25 05:24:18;;;;;;;55.78;28.05;;;7.90;99.90;;;;;;4977305;28;20200;-69
2021/12/25 05:26:45;;;;;;;54.05;30.13;;;7.90;99.90;;;;;;4977997;28;20233;-69
2021/12/25 05:29:12;;;;;;;56.28;31.00;;;7.90;99.90;;;;;;4977502;28;20214;-69
2021/12/25 05:31:38;;;;;;;54.13;28.55;;;7.90;99.90;;;;;;4976291;28;20211;-69
2021/12/25 05:34:05;;;;;;;72.97;47.25;;;7.90;99.90;;;;;;4977425;28;20208;-69
2021/12/25 05:36:31;;;;;;;94.07;52.65;;;7.90;99.90;;;;;;4977179;28;20376;-69
2021/12/25 05:38:59;;;;;;;59.75;35.25;;;7.90;99.90;;;;;;4977444;28;20217;-69
2021/12/25 05:41:27;;;;;;;60.63;34.83;;;7.90;99.90;;;;;;4975244;28;20229;-69
2021/12/25 05:43:55;;;;;;;53.35;28.25;;;7.90;99.90;;;;;;4977378;28;20199;-69
2021/12/25 05:46:22;;;;;;;79.70;48.53;;;7.90;99.90;;;;;;4977303;28;20199;-69
2021/12/25 05:48:50;;;;;;;60.72;33.55;;;7.90;99.90;;;;;;4977355;28;20603;-69
2021/12/25 05:51:17;;;;;;;58.60;30.70;;;7.90;99.90;;;;;;4976953;28;20635;-69
2021/12/25 05:53:45;;;;;;;54.45;30.48;;;7.90;99.90;;;;;;4975489;28;20217;-69
2021/12/25 05:56:11;;;;;;;49.17;30.13;;;7.90;99.90;;;;;;4977773;28;20207;-69
2021/12/25 05:58:38;;;;;;;55.90;31.23;;;8.00;99.90;;;;;;4977169;28;20715;-69
2021/12/25 06:01:05;;;;;;;43.42;27.83;;;8.00;99.90;;;;;;4977635;28;20286;-69
2021/12/25 06:03:32;;;;;;;47.15;26.88;;;7.90;99.90;;;;;;4977518;28;20670;-69
2021/12/25 06:05:59;;;;;;;44.97;27.20;;;8.00;99.90;;;;;;4977858;28;20781;-69
2021/12/25 06:08:26;;;;;;;46.25;28.40;;;8.00;99.90;;;;;;4975215;28;20207;-69
2021/12/25 06:10:53;;;;;;;49.05;27.95;;;7.90;99.90;;;;;;4977091;28;20266;-69
2021/12/25 06:13:22;;;;;;;44.42;25.10;;;7.90;99.90;;;;;;4976372;28;20265;-69
2021/12/25 06:15:51;;;;;;;43.97;27.00;;;7.90;99.90;;;;;;4976687;28;20211;-69
2021/12/25 06:18:18;;;;;;;46.28;27.50;;;7.90;99.90;;;;;;4977367;28;20214;-69
2021/12/25 06:20:45;;;;;;;42.10;26.80;;;7.90;99.90;;;;;;4976680;28;20239;-69
2021/12/25 06:23:11;;;;;;;47.70;28.10;;;7.90;99.90;;;;;;4960129;28;20199;-69
2021/12/25 06:25:37;;;;;;;45.88;27.55;;;7.90;99.90;;;;;;4976930;28;20618;-69
2021/12/25 06:28:04;;;;;;;45.28;26.42;;;7.90;99.90;;;;;;4976929;28;20199;-69
2021/12/25 06:30:31;;;;;;;49.67;27.75;;;7.90;99.90;;;;;;4977092;28;20726;-69
2021/12/25 06:32:57;;;;;;;41.22;25.35;;;7.90;99.90;;;;;;4975676;28;20574;-69
2021/12/25 06:35:24;;;;;;;45.30;28.42;;;7.90;99.90;;;;;;4975029;28;20288;-69
2021/12/25 06:37:50;;;;;;;37.40;25.33;;;7.90;99.90;;;;;;4959011;28;20204;-70
2021/12/25 06:40:18;;;;;;;41.67;26.17;;;7.90;99.90;;;;;;4976831;28;20207;-70
2021/12/25 06:42:46;;;;;;;42.78;26.83;;;7.90;99.90;;;;;;4975486;28;20223;-70
2021/12/25 06:45:13;;;;;;;48.80;27.00;;;7.90;99.90;;;;;;4976318;28;20207;-70
2021/12/25 06:47:40;;;;;;;43.92;24.70;;;8.00;99.90;;;;;;4976256;28;20204;-70
2021/12/25 06:50:08;;;;;;;40.80;25.38;;;8.00;99.90;;;;;;4958457;28;20681;-70
2021/12/25 06:52:35;;;;;;;38.97;26.00;;;7.90;99.90;;;;;;4975338;28;20203;-70
2021/12/25 06:55:04;;;;;;;39.03;25.17;;;8.00;99.90;;;;;;4976075;28;20663;-69
2021/12/25 06:57:30;;;;;;;40.03;25.65;;;8.00;99.90;;;;;;4977650;28;20219;-69
2021/12/25 06:59:57;;;;;;;37.90;25.23;;;8.00;99.90;;;;;;4979391;28;20273;-69
2021/12/25 07:02:23;;;;;;;36.20;26.65;;;8.00;99.90;;;;;;4979643;28;20223;-69
2021/12/25 07:04:50;;;;;;;41.05;26.83;;;8.00;99.90;;;;;;4979054;28;20288;-70
2021/12/25 07:07:17;;;;;;;38.97;28.67;;;8.00;99.90;;;;;;4979194;28;20227;-70
2021/12/25 07:09:44;;;;;;;40.67;26.23;;;8.00;99.90;;;;;;4961714;28;20779;-70
2021/12/25 07:12:10;;;;;;;33.22;24.00;;;8.00;99.90;;;;;;4979165;28;20211;-69
2021/12/25 07:14:37;;;;;;;35.85;25.23;;;8.10;99.90;;;;;;4978580;28;20207;-69
2021/12/25 07:17:03;;;;;;;39.40;25.85;;;8.10;99.90;;;;;;4978445;28;20226;-69
2021/12/25 07:19:30;;;;;;;37.08;26.23;;;8.10;99.90;;;;;;4979636;28;20218;-70
2021/12/25 07:21:56;;;;;;;34.83;26.40;;;8.00;99.90;;;;;;4979257;28;20235;-69
2021/12/25 07:24:23;;;;;;;32.00;24.33;;;8.10;99.90;;;;;;4979208;28;20204;-69
2021/12/25 07:26:49;;;;;;;34.25;24.70;;;8.10;99.90;;;;;;4979158;28;20567;-69
2021/12/25 07:29:15;;;;;;;37.05;25.88;;;8.00;99.90;;;;;;4979037;28;20195;-70
2021/12/25 07:31:42;;;;;;;37.10;26.55;;;8.10;99.90;;;;;;4979119;28;20663;-70
2021/12/25 07:34:08;;;;;;;37.92;25.55;;;8.10;99.90;;;;;;4978842;28;20203;-70
2021/12/25 07:36:35;;;;;;;37.65;25.52;;;8.10;99.90;;;;;;4962126;28;20258;-70
2021/12/25 07:39:04;;;;;;;38.83;26.25;;;8.10;99.90;;;;;;4979353;28;20207;-70
2021/12/25 07:41:30;;;;;;;40.45;25.55;;;8.10;99.90;;;;;;4981817;28;20223;-69
2021/12/25 07:43:57;;;;;;;38.45;25.83;;;8.10;99.90;;;;;;4979297;28;20202;-70
2021/12/25 07:46:24;;;;;;;43.97;27.45;;;8.10;99.90;;;;;;4979220;28;20206;-71
2021/12/25 07:48:50;;;;;;;40.53;26.42;;;8.20;99.90;;;;;;4979103;28;20289;-69
2021/12/25 07:51:17;;;;;;;35.95;26.45;;;8.20;99.90;;;;;;4979341;28;20207;-70
2021/12/25 07:53:44;;;;;;;36.00;26.40;;;8.20;99.90;;;;;;4979525;28;20569;-70
2021/12/25 07:56:12;;;;;;;39.65;26.77;;;8.20;99.90;;;;;;4980251;28;20269;-70
2021/12/25 07:58:39;;;;;;;44.60;27.20;;;8.20;99.90;;;;;;4979666;28;20671;-70
2021/12/25 08:01:06;;;;;;;37.63;25.15;;;8.30;99.90;;;;;;4979197;28;20277;-70
2021/12/25 08:03:33;;;;;;;36.78;23.92;;;8.20;99.90;;;;;;4978432;28;20627;-71
2021/12/25 08:05:59;;;;;;;33.70;24.10;;;8.30;99.90;;;;;;4979679;28;20220;-69
2021/12/25 08:08:25;;;;;;;37.45;24.45;;;8.30;99.90;;;;;;4979337;28;20210;-70
2021/12/25 08:10:52;;;;;;;31.98;23.70;;;8.30;99.90;;;;;;4961678;28;20265;-70
2021/12/25 08:13:18;;;;;;;34.95;24.30;;;8.30;99.90;;;;;;4978747;28;20234;-71
2021/12/25 08:15:45;;;;;;;34.47;23.48;;;8.30;99.90;;;;;;4978424;28;20196;-70
2021/12/25 08:18:11;;;;;;;34.58;24.95;;;8.30;99.90;;;;;;4978610;28;20269;-70
2021/12/25 08:20:38;;;;;;;34.55;23.95;;;8.30;99.90;;;;;;4978860;28;20602;-70
2021/12/25 08:23:05;;;;;;;37.58;24.25;;;8.30;99.90;;;;;;4986850;28;20227;-70
2021/12/25 08:25:31;;;;;;;41.03;25.25;;;8.30;99.90;;;;;;4986709;28;20258;-71
2021/12/25 08:27:58;;;;;;;39.63;24.45;;;8.30;99.90;;;;;;4988830;28;20290;-71
2021/12/25 08:30:26;;;;;;;34.33;24.60;;;8.30;99.90;;;;;;4987713;28;20204;-71
2021/12/25 08:32:55;;;;;;;35.15;25.05;;;8.40;99.90;;;;;;4985052;28;20293;-72
2021/12/25 08:35:24;;;;;;;31.13;22.48;;;8.40;99.90;;;;;;4986159;28;20679;-70
2021/12/25 08:37:51;;;;;;;26.77;20.48;;;8.40;99.90;;;;;;4989635;28;20584;-70
2021/12/25 08:40:18;;;;;;;32.50;21.73;;;8.50;99.90;;;;;;4986959;28;20210;-70
2021/12/25 08:42:53;;;;;;;29.90;20.60;;;8.50;99.90;;;;;;4986609;28;20219;-72
2021/12/25 08:48:09;;;;;;;26.48;19.05;;;8.60;99.90;;;;;;4985702;28;20314;-71
2021/12/25 08:50:36;;;;;;;28.25;20.42;;;8.60;99.90;;;;;;4986416;28;20223;-71
2021/12/25 08:53:03;;;;;;;24.38;18.30;;;8.60;99.90;;;;;;4986835;28;20303;-71
2021/12/25 08:55:30;;;;;;;22.92;18.42;;;8.60;99.90;;;;;;4987167;28;20214;-70
2021/12/25 08:57:56;;;;;;;23.25;16.55;;;8.70;99.90;;;;;;4986454;28;20222;-71
2021/12/25 09:00:22;;;;;;;23.98;16.75;;;8.70;99.90;;;;;;4987282;28;20266;-71
2021/12/25 09:02:49;;;;;;;21.00;16.08;;;8.70;99.90;;;;;;4988521;28;20279;-70
2021/12/25 09:05:16;;;;;;;24.67;16.55;;;8.70;99.90;;;;;;4986499;28;20350;-71
2021/12/25 09:07:42;;;;;;;22.15;17.60;;;8.80;99.90;;;;;;4985655;28;20283;-71
2021/12/25 09:10:09;;;;;;;19.80;14.18;;;8.80;99.90;;;;;;4982636;28;20219;-71
2021/12/25 09:12:40;;;;;;;16.58;14.30;;;8.80;99.90;;;;;;4986477;28;20207;-71
2021/12/25 09:15:08;;;;;;;20.85;13.90;;;8.90;99.90;;;;;;4984391;28;20255;-70
2021/12/25 09:17:34;;;;;;;16.30;14.18;;;8.90;99.90;;;;;;4984656;28;20214;-71
2021/12/25 09:20:01;;;;;;;19.35;16.88;;;8.90;99.90;;;;;;4982756;28;20266;-71
2021/12/25 09:22:28;;;;;;;22.05;16.17;;;9.00;99.90;;;;;;4983154;28;20289;-71
2021/12/25 09:24:54;;;;;;;18.27;16.30;;;9.10;99.90;;;;;;4980831;28;20203;-71
2021/12/25 09:27:21;;;;;;;18.15;15.32;;;9.10;99.90;;;;;;4983007;28;20199;-70
2021/12/25 09:29:48;;;;;;;17.20;14.95;;;9.10;99.90;;;;;;4983984;28;20200;-71
2021/12/25 09:32:14;;;;;;;15.35;13.75;;;9.20;99.90;;;;;;4982607;28;20294;-71
2021/12/25 09:34:41;;;;;;;15.32;13.73;;;9.20;99.90;;;;;;4982037;28;20214;-71
2021/12/25 09:37:08;;;;;;;16.20;14.57;;;9.20;99.90;;;;;;4983318;28;20400;-73
2021/12/25 09:39:35;;;;;;;13.93;12.27;;;9.20;99.90;;;;;;4980256;28;20215;-70
2021/12/25 09:42:01;;;;;;;14.90;12.90;;;9.30;99.90;;;;;;4979305;28;20207;-70
2021/12/25 09:44:28;;;;;;;14.77;12.25;;;9.30;99.90;;;;;;4979187;28;20211;-70
2021/12/25 09:46:54;;;;;;;15.05;12.95;;;9.30;99.90;;;;;;4979202;28;20222;-71
2021/12/25 09:49:21;;;;;;;12.95;10.52;;;9.40;99.90;;;;;;4980397;28;20206;-72
2021/12/25 09:51:47;;;;;;;12.68;11.32;;;9.40;99.90;;;;;;4981488;28;20754;-71
2021/12/25 09:54:15;;;;;;;13.88;12.48;;;9.40;99.90;;;;;;4977967;28;20207;-71
2021/12/25 09:56:45;;;;;;;12.52;11.20;;;9.40;99.90;;;;;;4960032;28;20211;-72
2021/12/25 09:59:12;;;;;;;20.40;12.77;;;9.40;99.90;;;;;;4976931;28;20239;-72
2021/12/25 10:01:48;;;;;;;14.93;11.98;;;9.40;99.90;;;;;;4959126;28;20203;-71
2021/12/25 10:04:38;;;;;;;14.18;12.68;;;9.40;99.90;;;;;;4975498;28;20194;-71
2021/12/25 10:07:24;;;;;;;17.73;12.30;;;9.40;99.90;;;;;;4975260;28;20242;-71
2021/12/25 10:10:05;;;;;;;16.23;11.82;;;9.30;99.90;;;;;;4975956;28;20575;-71
2021/12/25 10:12:43;;;;;;;15.10;12.65;;;9.40;99.90;;;;;;4976748;28;20215;-71
2021/12/25 10:15:23;;;;;;;14.85;12.75;;;9.40;99.90;;;;;;4977007;28;20242;-71
2021/12/25 10:17:53;;;;;;;13.73;12.05;;;9.50;99.90;;;;;;4976494;28;20647;-71
2021/12/25 10:20:23;;;;;;;15.45;11.50;;;9.50;99.90;;;;;;4959184;28;20242;-70
2021/12/25 10:22:55;;;;;;;15.63;12.63;;;9.60;99.90;;;;;;4974842;28;20215;-70
2021/12/25 10:25:22;;;;;;;16.00;13.32;;;9.60;99.90;;;;;;4974540;28;20222;-70
2021/12/25 10:27:56;;;;;;;16.17;11.80;;;9.60;99.90;;;;;;4975005;28;20210;-70
2021/12/25 10:30:23;;;;;;;16.58;11.75;;;9.60;99.90;;;;;;4974871;28;20207;-70
2021/12/25 10:32:50;;;;;;;12.50;10.93;;;9.60;99.90;;;;;;4978445;28;20223;-70
2021/12/25 10:35:20;;;;;;;19.65;13.23;;;9.60;99.90;;;;;;4977973;28;20571;-69
2021/12/25 10:37:48;;;;;;;16.50;12.23;;;9.70;99.90;;;;;;4978162;28;20211;-69
2021/12/25 10:40:33;;;;;;;14.60;11.20;;;9.70;99.90;;;;;;4977961;28;20257;-69
2021/12/25 10:43:03;;;;;;;13.73;11.18;;;9.60;99.90;;;;;;4977980;28;20195;-69
2021/12/25 10:45:31;;;;;;;13.98;11.02;;;9.60;99.90;;;;;;4960461;28;20659;-69
2021/12/25 10:48:03;;;;;;;16.23;12.30;;;9.60;99.90;;;;;;4977971;28;20265;-69
2021/12/25 10:50:39;;;;;;;15.95;12.38;;;9.60;99.90;;;;;;4977446;28;20207;-70
2021/12/25 10:53:30;;;;;;;14.18;12.32;;;9.60;99.90;;;;;;4977315;28;20233;-70
2021/12/25 10:56:12;;;;;;;17.88;12.43;;;9.60;99.90;;;;;;4977615;28;20277;-69
2021/12/25 10:58:40;;;;;;;16.88;12.07;;;9.60;99.90;;;;;;4977890;28;20651;-69
2021/12/25 11:01:10;;;;;;;14.80;11.52;;;9.70;99.90;;;;;;4977463;28;20207;-69
2021/12/25 11:03:40;;;;;;;14.40;11.70;;;9.80;99.90;;;;;;4977486;28;20215;-69
2021/12/25 11:06:13;;;;;;;14.65;11.80;;;9.70;99.90;;;;;;4977615;28;20223;-69
2021/12/25 11:08:41;;;;;;;13.13;11.65;;;9.70;99.90;;;;;;4977932;28;20587;-69
2021/12/25 11:11:10;;;;;;;18.25;11.73;;;9.70;99.90;;;;;;4978675;28;20551;-69
2021/12/25 11:13:44;;;;;;;13.05;11.65;;;9.70;99.90;;;;;;4977237;28;20226;-69
2021/12/25 11:16:35;;;;;;;15.00;11.98;;;9.70;99.90;;;;;;4977773;28;20191;-69
2021/12/25 11:19:12;;;;;;;13.77;11.30;;;9.70;99.90;;;;;;4976680;28;20199;-70
2021/12/25 11:21:59;;;;;;;12.63;11.32;;;9.70;99.90;;;;;;4976979;28;20231;-69
2021/12/25 11:24:38;;;;;;;14.07;12.35;;;9.70;99.90;;;;;;4976638;28;20199;-71
2021/12/25 11:27:06;;;;;;;17.13;12.70;;;9.60;99.90;;;;;;4976658;28;20203;-69
2021/12/25 11:29:36;;;;;;;16.00;12.82;;;9.60;99.90;;;;;;4977761;28;20218;-69
2021/12/25 11:32:05;;;;;;;14.27;12.75;;;9.70;99.90;;;;;;4976951;28;20318;-69
2021/12/25 11:34:32;;;;;;;16.25;12.63;;;9.60;99.90;;;;;;4976990;28;20211;-69
2021/12/25 11:37:00;;;;;;;15.85;12.65;;;9.60;99.90;;;;;;4977545;28;20209;-69
2021/12/25 11:39:28;;;;;;;24.67;15.60;;;9.60;99.90;;;;;;4976959;28;20608;-70
2021/12/25 11:41:59;;;;;;;14.43;12.60;;;9.70;99.90;;;;;;4976800;28;20266;-68
2021/12/25 11:44:47;;;;;;;18.67;13.18;;;9.40;99.90;;;;;;4975275;28;20214;-69
2021/12/25 11:47:32;;;;;;;14.80;12.90;;;9.20;99.90;;;;;;4977099;28;20204;-69
2021/12/25 11:50:03;;;;;;;17.50;14.90;;;8.90;99.90;;;;;;4976935;28;20295;-69
2021/12/25 11:52:37;;;;;;;21.92;17.77;;;8.70;99.90;;;;;;4977054;28;20220;-69
2021/12/25 11:58:42;;;;;;;24.42;19.52;;;8.40;99.90;;;;;;4958053;28;20222;-69
2021/12/25 12:01:19;;;;;;;22.92;18.38;;;8.30;99.90;;;;;;4976505;28;20202;-69
2021/12/25 12:03:55;;;;;;;18.27;16.33;;;8.10;99.90;;;;;;4976535;28;20678;-69
2021/12/25 12:06:43;;;;;;;18.88;15.90;;;7.90;99.90;;;;;;4977434;28;20222;-68
2021/12/25 12:09:48;;;;;;;19.02;14.27;;;7.50;99.90;;;;;;4976687;28;20548;-68
2021/12/25 12:12:29;;;;;;;20.33;16.67;;;7.20;99.90;;;;;;4976794;28;20214;-68
2021/12/25 12:15:14;;;;;;;23.02;16.38;;;7.10;99.90;;;;;;4976687;28;20207;-68
2021/12/25 12:17:42;;;;;;;25.35;17.50;;;7.00;99.90;;;;;;4976406;28;20196;-69
2021/12/25 12:20:15;;;;;;;25.05;17.90;;;6.90;99.90;;;;;;4976007;28;20282;-68
2021/12/25 12:23:17;;;;;;;21.70;15.93;;;6.80;99.90;;;;;;4976604;28;20195;-69
2021/12/25 12:25:58;;;;;;;19.83;14.40;;;6.70;99.90;;;;;;4964522;28;20210;-69
2021/12/25 12:28:43;;;;;;;19.95;15.82;;;6.70;99.90;;;;;;4976602;28;20655;-68
2021/12/25 12:31:45;;;;;;;24.25;14.68;;;6.60;99.90;;;;;;4976356;28;20191;-68
2021/12/25 12:34:30;;;;;;;24.88;15.40;;;6.60;99.90;;;;;;4977210;28;20195;-68
2021/12/25 12:37:32;;;;;;;15.30;13.35;;;6.60;99.90;;;;;;4976410;28;20204;-68
2021/12/25 12:40:04;;;;;;;14.57;12.55;;;6.40;99.90;;;;;;4882158;29;20209;-68
2021/12/25 12:42:48;;;;;;;15.15;12.00;;;6.40;99.90;;;;;;4963651;28;20208;-69
2021/12/25 12:45:34;;;;;;;17.42;12.57;;;6.30;99.90;;;;;;4975889;28;20207;-70
2021/12/25 12:48:09;;;;;;;17.10;12.52;;;6.20;99.90;;;;;;4976702;28;20191;-69
2021/12/25 12:50:38;;;;;;;14.02;11.55;;;6.10;99.90;;;;;;4977465;28;20254;-69
2021/12/25 12:53:07;;;;;;;13.27;11.00;;;6.00;99.90;;;;;;4976180;28;20604;-69
2021/12/25 12:55:39;;;;;;;14.07;11.60;;;6.00;99.90;;;;;;4974984;28;20204;-70
2021/12/25 12:58:14;;;;;;;13.88;11.45;;;6.00;99.90;;;;;;4975882;28;20183;-69
2021/12/25 13:00:49;;;;;;;13.02;11.73;;;5.90;99.90;;;;;;4975907;28;20268;-69
2021/12/25 13:03:17;;;;;;;12.35;11.05;;;5.90;99.90;;;;;;4942612;28;20213;-69
2021/12/25 13:05:53;;;;;;;15.02;12.32;;;5.80;99.90;;;;;;4976265;28;20207;-69
2021/12/25 13:08:30;;;;;;;15.00;12.85;;;5.80;99.90;;;;;;4976078;28;20253;-68
2021/12/25 13:11:06;;;;;;;14.60;10.75;;;5.90;99.90;;;;;;4959440;28;20187;-70
2021/12/25 13:13:40;;;;;;;11.30;9.15;;;5.80;99.90;;;;;;4974564;28;20229;-69
2021/12/25 13:16:14;;;;;;;16.35;11.27;;;5.80;99.90;;;;;;4976020;28;20207;-68
2021/12/25 13:18:44;;;;;;;12.70;10.18;;;5.70;99.90;;;;;;4975645;28;20229;-68
2021/12/25 13:21:16;;;;;;;12.93;10.85;;;5.50;99.90;;;;;;4974984;28;20234;-68
2021/12/25 13:23:53;;;;;;;10.57;9.48;;;5.40;99.90;;;;;;4975276;28;20203;-68
2021/12/25 13:26:32;;;;;;;14.30;10.73;;;5.40;99.90;;;;;;4975477;28;20198;-68
2021/12/25 13:29:04;;;;;;;12.07;10.10;;;5.30;99.90;;;;;;4975248;28;20211;-69
2021/12/25 13:31:33;;;;;;;10.85;9.68;;;5.30;99.90;;;;;;4975541;28;20196;-69
2021/12/25 13:34:05;;;;;;;10.48;9.40;;;5.20;99.90;;;;;;4975497;28;20652;-68
2021/12/25 13:36:34;;;;;;;10.75;9.30;;;5.10;99.90;;;;;;4957700;28;20207;-69
2021/12/25 13:39:06;;;;;;;12.48;8.20;;;5.00;99.90;;;;;;4974876;28;20257;-69
2021/12/25 13:41:32;;;;;;;9.95;8.93;;;5.10;99.90;;;;;;4975148;28;20231;-70
2021/12/25 13:44:29;;;;;;;11.02;9.90;;;5.10;99.90;;;;;;4975136;28;20267;-68
2021/12/25 13:46:59;;;;;;;9.45;8.52;;;5.10;99.90;;;;;;4975256;28;20195;-68
2021/12/25 13:49:38;;;;;;;10.32;9.20;;;5.10;99.90;;;;;;4974883;28;20243;-68
2021/12/25 13:52:20;;;;;;;9.38;8.48;;;5.10;99.90;;;;;;4982341;28;20744;-68
2021/12/25 13:54:55;;;;;;;8.05;7.35;;;5.00;99.90;;;;;;4981367;28;20563;-68
2021/12/25 13:57:24;;;;;;;11.48;8.40;;;5.00;99.90;;;;;;4993934;28;20209;-69
2021/12/25 13:59:57;;;;;;;9.68;8.68;;;4.90;99.90;;;;;;4993982;28;20626;-68
2021/12/25 14:02:25;;;;;;;9.95;8.57;;;4.80;99.90;;;;;;4994911;28;20252;-68
2021/12/25 14:04:52;;;;;;;10.68;8.38;;;4.70;99.90;;;;;;4994743;28;20211;-69
2021/12/25 14:07:22;;;;;;;9.90;8.35;;;4.80;99.90;;;;;;5000925;28;20823;-68
2021/12/25 14:10:01;;;;;;;9.60;8.43;;;4.90;99.90;;;;;;5000928;28;20205;-69
2021/12/25 14:12:29;;;;;;;10.00;9.00;;;4.90;99.90;;;;;;4983596;28;20210;-69
2021/12/25 14:14:57;;;;;;;9.98;8.98;;;4.90;99.90;;;;;;5000644;28;20203;-68
2021/12/25 14:17:26;;;;;;;10.20;9.20;;;4.80;99.90;;;;;;5001047;28;20210;-68
2021/12/25 14:20:16;;;;;;;10.50;8.18;;;4.70;99.90;;;;;;4983386;28;20198;-69